Time;durP1;ratioP1;P1;durP2;ratioP2;P2;SDS_P1;SDS_P2;PMS_P1;PMS_P2;Temp;Humidity;BMP_temperature;BMP_pressure;BME280_temperature;BME280_humidity;BME280_pressure;Samples;Min_cycle;Max_cycle;Signal;HPM_P1;HPM_P2
2021/08/08 00:00:07;;;;;;;2.97;2.05;;;;;;;32.28;29.63;97413.00;5062894;28;20029;-91
2021/08/08 00:02:37;;;;;;;9.88;3.13;;;;;;;32.01;30.21;97409.44;5066675;28;20039;-92
2021/08/08 00:05:07;;;;;;;2.53;2.00;;;;;;;29.75;34.25;97396.69;5072048;28;20028;-91
2021/08/08 00:07:33;;;;;;;2.92;1.80;;;;;;;31.27;31.59;97399.88;5068476;28;20095;-92
2021/08/08 00:09:59;;;;;;;5.32;1.80;;;;;;;30.41;32.68;97404.72;5063614;28;20029;-91
2021/08/08 00:12:25;;;;;;;2.30;2.10;;;;;;;30.51;32.70;97406.13;5058624;28;20110;-92
2021/08/08 00:14:51;;;;;;;2.33;1.40;;;;;;;30.91;32.23;97396.91;5065445;28;20043;-92
2021/08/08 00:17:17;;;;;;;2.60;2.10;;;;;;;31.50;30.96;97395.28;5055576;28;20037;-92
2021/08/08 00:19:43;;;;;;;4.93;2.00;;;;;;;29.83;33.72;97392.22;5064189;28;20043;-91
2021/08/08 00:22:10;;;;;;;1.63;1.52;;;;;;;30.94;32.01;97395.91;5058802;28;20137;-91
2021/08/08 00:24:36;;;;;;;1.75;1.50;;;;;;;31.27;31.42;97384.94;5063757;28;20035;-91
2021/08/08 00:27:02;;;;;;;2.22;1.98;;;;;;;31.37;31.27;97392.00;5067747;28;20112;-90
2021/08/08 00:29:28;;;;;;;1.42;1.20;;;;;;;31.84;30.46;97399.97;5058113;28;20037;-91
2021/08/08 00:31:54;;;;;;;1.98;1.23;;;;;;;32.74;29.19;97396.50;5064124;28;20044;-90
2021/08/08 00:34:20;;;;;;;3.13;1.70;;;;;;;31.84;30.13;97397.13;5058108;28;20436;-90
2021/08/08 00:36:46;;;;;;;1.42;1.33;;;;;;;32.26;29.42;97395.66;5062372;28;20496;-91
2021/08/08 00:39:15;;;;;;;1.40;1.20;;;;;;;32.41;29.27;97396.28;5059721;28;20044;-90
2021/08/08 00:41:41;;;;;;;1.23;1.10;;;;;;;33.14;28.07;97413.22;5063573;28;20028;-91
2021/08/08 00:44:07;;;;;;;1.50;1.40;;;;;;;33.48;27.72;97416.94;5060929;28;20113;-90
2021/08/08 00:46:33;;;;;;;1.42;1.17;;;;;;;33.20;28.16;97413.25;5061637;28;20044;-90
2021/08/08 00:49:00;;;;;;;1.27;1.08;;;;;;;33.28;27.85;97411.47;5065457;28;20108;-91
2021/08/08 00:51:30;;;;;;;1.17;1.00;;;;;;;33.69;26.95;97404.06;5070118;28;20032;-91
2021/08/08 00:53:56;;;;;;;1.77;1.10;;;;;;;33.34;27.37;97413.03;5067820;28;20037;-92
2021/08/08 00:56:23;;;;;;;1.60;1.40;;;;;;;31.52;30.61;97406.09;5059571;28;20033;-90
2021/08/08 00:58:49;;;;;;;2.65;1.38;;;;;;;31.18;30.88;97399.28;5069750;28;20033;-90
2021/08/08 01:01:18;;;;;;;1.08;1.00;;;;;;;32.09;29.54;97404.81;5061341;28;20096;-91
2021/08/08 01:03:45;;;;;;;1.38;1.25;;;;;;;32.70;28.64;97421.53;5056907;28;20083;-91
2021/08/08 01:06:26;;;;;;;2.03;1.40;;;;;;;32.67;28.43;97420.47;5060492;28;20064;-90
2021/08/08 01:08:56;;;;;;;2.03;1.65;;;;;;;30.59;31.94;97415.78;5054775;28;20424;-91
2021/08/08 01:11:24;;;;;;;3.42;1.50;;;;;;;29.55;33.54;97413.56;5056715;28;20079;-92
2021/08/08 01:13:51;;;;;;;1.30;1.20;;;;;;;30.55;32.18;97406.72;5056407;28;20483;-91
2021/08/08 01:16:20;;;;;;;1.30;1.00;;;;;;;31.81;30.19;97403.03;5056909;28;20036;-91
2021/08/08 01:18:47;;;;;;;2.92;1.40;;;;;;;31.76;29.59;97384.69;5062179;28;20547;-92
2021/08/08 01:21:14;;;;;;;1.77;1.40;;;;;;;32.06;29.48;97380.28;5054127;28;20453;-91
2021/08/08 01:23:43;;;;;;;1.20;1.10;;;;;;;32.60;28.61;97384.00;5060332;28;20103;-91
2021/08/08 01:26:09;;;;;;;2.80;1.25;;;;;;;30.94;30.87;97373.22;5062325;28;20037;-91
2021/08/08 01:28:36;;;;;;;1.75;1.50;;;;;;;31.34;30.44;97384.50;5056524;28;20025;-91
2021/08/08 01:31:02;;;;;;;1.80;1.70;;;;;;;30.05;32.73;97369.16;5061180;28;20036;-90
2021/08/08 01:33:29;;;;;;;0.77;0.70;;;;;;;31.53;30.51;97367.94;5065714;28;20029;-91
2021/08/08 01:35:55;;;;;;;5.28;1.10;;;;;;;31.76;29.74;97367.66;5060870;28;20442;-91
2021/08/08 01:38:22;;;;;;;1.98;1.20;;;;;;;30.42;31.87;97372.28;5060614;28;20025;-92
2021/08/08 01:40:54;;;;;;;1.40;1.30;;;;;;;31.48;30.33;97365.84;5063121;28;20434;-91
2021/08/08 01:43:27;;;;;;;1.52;1.25;;;;;;;29.62;33.38;97370.72;5056192;28;20029;-91
2021/08/08 01:46:03;;;;;;;1.70;1.48;;;;;;;30.54;31.86;97386.09;5058185;28;20079;-91
2021/08/08 01:48:31;;;;;;;1.92;1.30;;;;;;;30.78;31.83;97388.75;5062753;28;20060;-92
2021/08/08 01:50:58;;;;;;;3.25;2.58;;;;;;;29.28;34.11;97375.03;5058278;28;20087;-91
2021/08/08 01:53:26;;;;;;;2.80;1.83;;;;;;;29.41;34.38;97371.91;5059665;28;20559;-91
2021/08/08 01:55:53;;;;;;;1.40;1.30;;;;;;;31.11;31.83;97374.22;5065107;28;20040;-92
2021/08/08 01:58:20;;;;;;;3.85;1.80;;;;;;;30.57;32.36;97379.44;5057162;28;20150;-90
2021/08/08 02:00:49;;;;;;;1.92;1.67;;;;;;;30.56;32.43;97383.56;5055190;28;20021;-91
2021/08/08 02:03:16;;;;;;;1.50;1.40;;;;;;;30.87;31.79;97382.13;5060173;28;20388;-91
2021/08/08 02:05:42;;;;;;;1.70;1.40;;;;;;;31.05;31.83;97379.03;5056684;28;20103;-91
2021/08/08 02:08:08;;;;;;;1.83;1.20;;;;;;;31.08;31.59;97375.19;5062324;28;20392;-91
2021/08/08 02:10:34;;;;;;;1.52;1.35;;;;;;;30.52;32.78;97368.03;5057285;28;21102;-90
2021/08/08 02:13:00;;;;;;;2.33;1.40;;;;;;;30.81;32.44;97372.78;5056542;28;20051;-91
2021/08/08 02:15:27;;;;;;;2.85;1.52;;;;;;;30.56;32.40;97374.28;5057672;28;20515;-91
2021/08/08 02:17:53;;;;;;;1.85;1.35;;;;;;;30.68;33.02;97368.25;5063330;28;20037;-90
2021/08/08 02:20:19;;;;;;;3.75;1.10;;;;;;;31.48;31.42;97383.66;5057498;28;20048;-91
2021/08/08 02:22:46;;;;;;;1.50;1.33;;;;;;;31.90;30.46;97382.97;5053088;28;20392;-91
2021/08/08 02:25:13;;;;;;;2.15;1.45;;;;;;;32.32;30.03;97373.75;5057825;28;20041;-91
2021/08/08 02:27:40;;;;;;;1.52;1.10;;;;;;;32.51;29.58;97375.69;5069232;28;20150;-92
2021/08/08 02:30:09;;;;;;;1.13;0.90;;;;;;;32.54;29.04;97374.66;5059554;28;20480;-91
2021/08/08 02:32:36;;;;;;;1.10;1.00;;;;;;;32.25;29.36;97372.16;5061918;28;20029;-92
2021/08/08 02:35:02;;;;;;;1.08;0.90;;;;;;;32.58;28.89;97372.34;5058054;28;20037;-92
2021/08/08 02:37:28;;;;;;;1.15;0.90;;;;;;;33.07;28.36;97365.34;5058579;28;20036;-92
2021/08/08 02:39:55;;;;;;;1.40;1.10;;;;;;;33.17;27.77;97377.25;5059951;28;20049;-91
2021/08/08 02:42:21;;;;;;;1.13;1.02;;;;;;;32.57;28.29;97378.56;5059833;28;20029;-92
2021/08/08 02:44:47;;;;;;;1.15;1.05;;;;;;;32.76;28.44;97374.00;5063714;28;20429;-92
2021/08/08 02:47:13;;;;;;;0.77;0.68;;;;;;;33.23;27.64;97381.69;5064903;28;20051;-91
2021/08/08 02:49:39;;;;;;;1.90;0.80;;;;;;;33.46;27.47;97376.03;5061448;28;20103;-91
2021/08/08 02:52:06;;;;;;;0.98;0.80;;;;;;;33.53;27.24;97381.25;5053500;28;20032;-91
2021/08/08 02:54:33;;;;;;;0.57;0.57;;;;;;;33.71;27.12;97380.75;5062605;28;20081;-92
2021/08/08 02:56:59;;;;;;;1.52;0.70;;;;;;;33.44;26.80;97385.84;5059504;28;20063;-92
2021/08/08 02:59:25;;;;;;;0.80;0.80;;;;;;;33.71;26.90;97377.91;5060172;28;20033;-92
2021/08/08 03:01:51;;;;;;;0.80;0.70;;;;;;;33.91;26.16;97384.13;5063130;28;20097;-91
2021/08/08 03:04:17;;;;;;;1.73;0.80;;;;;;;33.90;26.39;97388.28;5059526;28;20058;-91
2021/08/08 03:06:47;;;;;;;0.90;0.70;;;;;;;33.69;26.49;97389.81;5061224;28;20492;-92
2021/08/08 03:09:13;;;;;;;0.60;0.60;;;;;;;33.59;26.52;97391.34;5067884;28;20063;-91
2021/08/08 03:11:45;;;;;;;0.65;0.60;;;;;;;33.64;26.61;97399.13;5069696;28;20057;-91
2021/08/08 03:14:16;;;;;;;0.88;0.55;;;;;;;33.50;26.57;97397.28;5058521;28;20048;-90
2021/08/08 03:16:43;;;;;;;;;;;;;;;33.53;26.83;97404.03;5059323;28;20508;-91
2021/08/08 03:19:10;;;;;;;0.70;0.70;;;;;;;33.37;27.38;97411.22;5062027;28;19968;-91
2021/08/08 03:21:37;;;;;;;1.55;0.77;;;;;;;33.10;27.82;97411.91;5058114;28;20032;-91
2021/08/08 03:24:03;;;;;;;1.13;0.50;;;;;;;33.21;27.62;97412.72;5059209;28;20090;-91
2021/08/08 03:26:30;;;;;;;0.45;0.45;;;;;;;33.00;28.17;97424.78;5060785;28;20033;-91
2021/08/08 03:28:56;;;;;;;0.65;0.55;;;;;;;33.41;27.47;97423.13;5058152;28;20059;-91
2021/08/08 03:31:23;;;;;;;1.40;0.68;;;;;;;33.16;27.94;97439.09;5059038;28;20400;-91
2021/08/08 03:33:49;;;;;;;0.68;0.68;;;;;;;32.74;28.05;97448.44;5060317;28;20032;-92
2021/08/08 03:36:15;;;;;;;0.73;0.73;;;;;;;32.94;28.34;97458.09;5062879;28;20025;-92
2021/08/08 03:38:42;;;;;;;0.60;0.60;;;;;;;32.48;28.86;97456.28;5064035;28;20044;-90
2021/08/08 03:41:08;;;;;;;0.90;0.90;;;;;;;31.96;29.61;97472.63;5060125;28;20112;-91
2021/08/08 03:43:34;;;;;;;0.85;0.80;;;;;;;32.83;29.17;97472.25;5061474;28;20032;-91
2021/08/08 03:46:00;;;;;;;1.00;0.90;;;;;;;32.96;28.21;97478.28;5067735;28;20040;-91
2021/08/08 03:48:26;;;;;;;1.80;1.15;;;;;;;32.30;29.12;97487.13;5061000;28;20399;-91
2021/08/08 03:50:52;;;;;;;0.90;0.77;;;;;;;33.22;28.19;97491.13;5064579;28;20511;-92
2021/08/08 03:53:18;;;;;;;1.17;0.90;;;;;;;33.75;27.33;97492.34;5057266;28;20041;-91
2021/08/08 03:55:44;;;;;;;0.98;0.63;;;;;;;34.56;26.21;97501.53;5064170;28;20413;-91
2021/08/08 03:58:10;;;;;;;0.75;0.70;;;;;;;34.87;25.94;97500.44;5057709;28;20108;-91
2021/08/08 04:00:37;;;;;;;1.15;0.75;;;;;;;35.27;25.27;97494.09;5067863;28;20067;-91
2021/08/08 04:03:03;;;;;;;2.53;0.90;;;;;;;35.33;25.35;97514.06;5061677;28;20029;-92
2021/08/08 04:05:29;;;;;;;1.08;0.65;;;;;;;35.25;25.49;97525.25;5060090;28;20493;-91
2021/08/08 04:07:55;;;;;;;0.90;0.75;;;;;;;35.32;25.72;97529.66;5064032;28;20100;-90
2021/08/08 04:10:21;;;;;;;3.03;0.77;;;;;;;34.78;27.15;97534.16;5056381;28;20044;-91
2021/08/08 04:12:47;;;;;;;0.70;0.70;;;;;;;34.54;27.42;97537.56;5056057;28;20033;-91
2021/08/08 04:15:13;;;;;;;0.95;0.70;;;;;;;34.26;27.62;97545.31;5058247;28;20040;-91
2021/08/08 04:17:39;;;;;;;0.75;0.75;;;;;;;34.62;26.86;97556.47;5058458;28;20485;-92
2021/08/08 04:20:05;;;;;;;1.90;0.90;;;;;;;34.86;26.24;97560.88;5068429;28;20047;-92
2021/08/08 04:22:32;;;;;;;3.05;0.98;;;;;;;33.19;28.61;97559.63;5059577;28;20036;-89
2021/08/08 04:24:58;;;;;;;0.60;0.52;;;;;;;32.93;29.28;97571.09;5069115;28;20028;-90
2021/08/08 04:27:24;;;;;;;0.65;0.65;;;;;;;33.09;29.70;97584.69;5060072;28;20068;-91
2021/08/08 04:29:50;;;;;;;2.08;0.55;;;;;;;32.12;31.09;97592.59;5059322;28;20048;-91
2021/08/08 04:32:16;;;;;;;0.50;0.50;;;;;;;32.55;30.34;97605.69;5060127;28;20043;-90
2021/08/08 04:34:42;;;;;;;2.25;0.50;;;;;;;31.96;31.75;97614.63;5060203;28;20028;-90
2021/08/08 04:37:08;;;;;;;1.50;1.08;;;;;;;31.13;32.58;97598.53;5064951;28;20488;-88
2021/08/08 04:39:34;;;;;;;2.42;0.50;;;;;;;31.16;33.08;97611.72;5059940;28;20056;-89
2021/08/08 04:42:02;;;;;;;1.77;0.57;;;;;;;31.27;32.55;97609.81;5059077;28;20087;-92
2021/08/08 04:44:28;;;;;;;0.85;0.40;;;;;;;31.14;32.34;97608.59;5057576;28;20032;-90
2021/08/08 04:46:54;;;;;;;0.65;0.35;;;;;;;31.05;32.71;97615.19;5058591;28;20120;-91
2021/08/08 04:49:20;;;;;;;0.30;0.30;;;;;;;31.09;32.06;97621.41;5066006;28;20075;-90
2021/08/08 04:51:46;;;;;;;0.40;0.30;;;;;;;31.50;31.63;97630.81;5056791;28;20037;-90
2021/08/08 04:54:12;;;;;;;0.73;0.30;;;;;;;30.72;32.45;97618.25;5058843;28;20107;-91
2021/08/08 04:56:38;;;;;;;0.30;0.20;;;;;;;30.82;32.46;97644.44;5056392;28;20044;-90
2021/08/08 04:59:05;;;;;;;0.55;0.30;;;;;;;31.06;31.91;97656.47;5056019;28;20518;-88
2021/08/08 05:01:31;;;;;;;0.40;0.20;;;;;;;30.90;32.01;97673.97;5063088;28;20082;-88
2021/08/08 05:03:57;;;;;;;0.50;0.30;;;;;;;30.04;32.86;97673.34;5063476;28;20032;-88
2021/08/08 05:06:24;;;;;;;0.25;0.22;;;;;;;30.04;33.00;97682.63;5066012;28;20108;-89
2021/08/08 05:08:50;;;;;;;3.25;0.30;;;;;;;30.06;33.17;97691.44;5063937;28;20040;-89
2021/08/08 05:11:17;;;;;;;0.73;0.73;;;;;;;29.85;33.25;97691.78;5059540;28;20052;-90
2021/08/08 05:13:44;;;;;;;0.28;0.28;;;;;;;30.18;32.32;97692.44;5058454;28;20040;-90
2021/08/08 05:16:10;;;;;;;3.15;0.20;;;;;;;29.46;33.67;97690.88;5061191;28;20037;-90
2021/08/08 05:18:36;;;;;;;0.32;0.20;;;;;;;30.07;32.91;97689.38;5066092;28;20047;-89
2021/08/08 05:21:02;;;;;;;0.20;0.20;;;;;;;29.59;33.43;97696.31;5063917;28;20074;-89
2021/08/08 05:23:28;;;;;;;0.20;0.20;;;;;;;29.42;33.53;97705.22;5068958;28;20029;-90
2021/08/08 05:25:59;;;;;;;0.20;0.20;;;;;;;29.58;33.34;97698.34;5068017;28;20105;-91
2021/08/08 05:28:25;;;;;;;0.10;0.10;;;;;;;30.20;32.42;97712.56;5071494;28;20032;-90
2021/08/08 05:30:51;;;;;;;0.98;0.20;;;;;;;29.57;33.53;97719.41;5064444;28;20025;-89
2021/08/08 05:33:18;;;;;;;0.32;0.30;;;;;;;30.69;31.86;97723.31;5066569;28;20025;-89
2021/08/08 05:35:44;;;;;;;1.02;0.28;;;;;;;30.69;31.61;97723.31;5056860;28;20081;-89
2021/08/08 05:38:10;;;;;;;0.68;0.20;;;;;;;31.23;30.95;97724.78;5067464;28;20036;-89
2021/08/08 05:40:36;;;;;;;0.20;0.20;;;;;;;30.89;31.00;97736.84;5062235;28;20111;-88
2021/08/08 05:43:02;;;;;;;0.20;0.20;;;;;;;30.93;31.00;97734.59;5077200;28;20028;-89
2021/08/08 05:45:29;;;;;;;0.20;0.20;;;;;;;30.83;31.29;97744.44;5068064;28;20098;-89
2021/08/08 05:47:58;;;;;;;0.30;0.22;;;;;;;30.98;31.38;97743.19;5065104;28;20060;-89
2021/08/08 05:50:24;;;;;;;2.45;0.20;;;;;;;31.63;30.52;97750.44;5062564;28;20649;-87
2021/08/08 05:52:52;;;;;;;0.20;0.17;;;;;;;32.02;29.97;97763.16;5064252;28;20040;-88
2021/08/08 05:55:19;;;;;;;0.30;0.20;;;;;;;32.37;29.69;97760.25;5066602;28;20041;-86
2021/08/08 05:57:45;;;;;;;0.38;0.30;;;;;;;32.20;29.80;97767.03;5062033;28;20033;-88
2021/08/08 06:00:11;;;;;;;0.20;0.20;;;;;;;32.22;30.05;97770.13;5058407;28;20039;-88
2021/08/08 06:02:38;;;;;;;0.10;0.10;;;;;;;31.62;30.68;97759.47;5063359;28;20036;-88
2021/08/08 06:05:04;;;;;;;0.17;0.15;;;;;;;32.33;29.84;97764.59;5057084;28;20455;-90
2021/08/08 06:07:30;;;;;;;0.50;0.30;;;;;;;32.12;29.75;97766.66;5060324;28;20036;-88
2021/08/08 06:09:59;;;;;;;0.20;0.20;;;;;;;32.32;29.82;97775.19;5055910;28;20028;-86
2021/08/08 06:12:25;;;;;;;0.32;0.15;;;;;;;32.36;29.47;97777.81;5057694;28;20123;-86
2021/08/08 06:14:51;;;;;;;0.10;0.10;;;;;;;32.87;28.85;97786.44;5064374;28;20059;-87
2021/08/08 06:17:17;;;;;;;0.15;0.15;;;;;;;32.86;29.20;97787.72;5061391;28;20040;-87
2021/08/08 06:19:43;;;;;;;0.22;0.15;;;;;;;33.37;28.21;97793.41;5056799;28;20029;-87
2021/08/08 06:22:11;;;;;;;0.20;0.20;;;;;;;33.32;28.03;97797.00;5067550;28;20028;-87
2021/08/08 06:24:38;;;;;;;0.20;0.20;;;;;;;33.43;28.01;97810.53;5063449;28;20040;-86
2021/08/08 06:27:04;;;;;;;0.13;0.10;;;;;;;33.64;28.29;97808.38;5062498;28;20564;-89
2021/08/08 06:29:30;;;;;;;0.10;0.10;;;;;;;32.61;29.27;97799.84;5060261;28;20396;-87
2021/08/08 06:31:56;;;;;;;0.30;0.30;;;;;;;33.02;29.58;97818.44;5054993;28;20400;-87
2021/08/08 06:34:22;;;;;;;0.10;0.10;;;;;;;33.41;28.67;97808.19;5058969;28;20480;-86
2021/08/08 06:36:49;;;;;;;0.20;0.10;;;;;;;33.70;28.50;97817.78;5054323;28;20036;-87
2021/08/08 06:39:16;;;;;;;0.10;0.10;;;;;;;32.18;30.51;97826.41;5058825;28;20029;-88
2021/08/08 06:41:42;;;;;;;0.20;0.20;;;;;;;32.65;30.06;97837.38;5065669;28;20488;-88
2021/08/08 06:44:08;;;;;;;0.10;0.10;;;;;;;31.74;31.09;97846.38;5069011;28;20025;-87
2021/08/08 06:46:34;;;;;;;0.20;0.20;;;;;;;32.05;30.69;97829.56;5062294;28;20534;-87
2021/08/08 06:49:00;;;;;;;0.20;0.20;;;;;;;32.10;30.56;97845.91;5062477;28;20033;-87
2021/08/08 06:51:26;;;;;;;0.17;0.17;;;;;;;32.44;30.41;97855.69;5064767;28;20037;-86
2021/08/08 06:53:52;;;;;;;0.32;0.17;;;;;;;32.39;30.29;97862.09;5059770;28;20489;-90
2021/08/08 06:56:18;;;;;;;0.30;0.30;;;;;;;32.11;30.67;97863.75;5065483;28;20028;-90
2021/08/08 06:59:21;;;;;;;0.30;0.20;;;;;;;32.56;29.79;97863.09;5061324;28;20531;-87
2021/08/08 07:01:47;;;;;;;0.25;0.25;;;;;;;32.62;29.73;97863.97;5066031;28;20028;-87
2021/08/08 07:04:13;;;;;;;0.10;0.10;;;;;;;32.50;29.88;97867.94;5062119;28;20542;-88
2021/08/08 07:06:39;;;;;;;0.10;0.10;;;;;;;32.12;30.25;97874.59;5063094;28;20037;-87
2021/08/08 07:09:07;;;;;;;1.13;0.20;;;;;;;32.88;29.26;97878.25;5060733;28;20035;-87
2021/08/08 07:11:35;;;;;;;0.13;0.10;;;;;;;33.15;29.01;97872.88;5061413;28;20136;-89
2021/08/08 07:14:01;;;;;;;0.20;0.20;;;;;;;32.51;29.95;97867.44;5051242;28;20028;-87
2021/08/08 07:16:28;;;;;;;0.20;0.20;;;;;;;33.21;28.55;97867.25;5062871;28;20132;-86
2021/08/08 07:18:54;;;;;;;0.10;0.10;;;;;;;32.81;29.23;97870.94;5066893;28;20082;-86
2021/08/08 07:21:20;;;;;;;0.10;0.10;;;;;;;32.92;29.83;97881.63;5059883;28;20484;-87
2021/08/08 07:23:46;;;;;;;0.20;0.20;;;;;;;33.01;29.34;97888.00;5061695;28;20037;-89
2021/08/08 07:26:12;;;;;;;0.22;0.20;;;;;;;32.78;29.82;97883.28;5066773;28;20071;-89
2021/08/08 07:28:38;;;;;;;0.80;0.17;;;;;;;33.40;28.95;97886.34;5063264;28;20035;-89
2021/08/08 07:31:04;;;;;;;0.20;0.10;;;;;;;33.63;28.19;97904.44;5070078;28;20123;-90
2021/08/08 07:33:30;;;;;;;0.10;0.10;;;;;;;34.30;28.24;97885.81;5065103;28;20028;-89
2021/08/08 07:35:59;;;;;;;0.20;0.20;;;;;;;34.74;27.44;97896.72;5065139;28;20028;-91
2021/08/08 07:38:25;;;;;;;0.68;0.10;;;;;;;34.94;27.09;97887.97;5060145;28;20116;-89
2021/08/08 07:40:51;;;;;;;0.10;0.10;;;;;;;35.32;26.63;97887.31;5065212;28;20032;-92
2021/08/08 07:43:17;;;;;;;0.10;0.10;;;;;;;35.71;27.31;97893.09;5063223;28;20043;-91
2021/08/08 07:45:43;;;;;;;0.17;0.10;;;;;;;35.98;26.08;97898.09;5064221;28;20535;-92
2021/08/08 07:48:09;;;;;;;0.30;0.28;;;;;;;36.38;26.74;97893.09;5060245;28;20079;-92
2021/08/08 07:50:36;;;;;;;0.10;0.10;;;;;;;36.47;26.73;97896.47;5058609;28;20059;-89
2021/08/08 07:53:06;;;;;;;1.02;0.10;;;;;;;36.70;26.90;97900.03;5058404;28;20045;-91
2021/08/08 07:55:32;;;;;;;0.30;0.10;;;;;;;36.81;26.07;97893.50;5060818;28;20025;-90
2021/08/08 07:57:58;;;;;;;0.10;0.10;;;;;;;37.07;26.09;97911.88;5064973;28;20059;-89
2021/08/08 08:00:24;;;;;;;0.20;0.10;;;;;;;37.23;26.13;97913.88;5065071;28;20475;-89
2021/08/08 08:02:50;;;;;;;0.43;0.20;;;;;;;37.38;25.60;97908.63;5059007;28;20037;-88
2021/08/08 08:05:16;;;;;;;0.20;0.10;;;;;;;37.39;25.40;97910.16;5064466;28;20116;-90
2021/08/08 08:07:42;;;;;;;0.80;0.10;;;;;;;37.41;24.69;97891.69;5062043;28;20059;-89
2021/08/08 08:10:09;;;;;;;1.17;0.10;;;;;;;37.24;25.18;97892.53;5061085;28;20032;-89
2021/08/08 08:12:37;;;;;;;0.10;0.10;;;;;;;37.32;25.32;97884.94;5063537;28;20032;-88
2021/08/08 08:15:03;;;;;;;0.10;0.10;;;;;;;37.52;25.89;97877.28;5061039;28;20029;-89
2021/08/08 08:17:29;;;;;;;0.25;0.20;;;;;;;37.27;26.20;97862.06;5063192;28;20128;-88
2021/08/08 08:19:55;;;;;;;0.35;0.10;;;;;;;37.24;26.13;97855.31;5058862;28;20039;-89
2021/08/08 08:22:21;;;;;;;0.10;0.10;;;;;;;37.50;25.41;97854.91;5063674;28;20033;-88
2021/08/08 08:24:47;;;;;;;0.10;0.10;;;;;;;37.50;25.44;97871.31;5064277;28;20488;-88
2021/08/08 08:27:13;;;;;;;0.20;0.20;;;;;;;36.94;25.42;97876.56;5059931;28;20127;-86
2021/08/08 08:29:39;;;;;;;0.10;0.10;;;;;;;36.93;25.44;97878.63;5064065;28;20565;-92
2021/08/08 08:32:07;;;;;;;0.10;0.10;;;;;;;36.70;25.54;97877.16;5058408;28;20021;-89
2021/08/08 08:34:34;;;;;;;0.10;0.10;;;;;;;36.46;25.66;97876.97;5056890;28;20028;-90
2021/08/08 08:37:00;;;;;;;0.08;0.08;;;;;;;36.47;25.12;97876.44;5058018;28;20037;-87
2021/08/08 08:39:26;;;;;;;0.47;0.17;;;;;;;36.56;24.84;97863.94;5064224;28;20032;-93
2021/08/08 08:41:56;;;;;;;0.28;0.10;;;;;;;36.46;25.73;97862.66;5060454;28;20036;-91
2021/08/08 08:44:23;;;;;;;0.10;0.10;;;;;;;36.43;25.78;97860.84;5061324;28;20460;-90
2021/08/08 08:46:52;;;;;;;0.20;0.20;;;;;;;37.11;24.69;97868.66;5054490;28;21003;-92
2021/08/08 08:49:25;;;;;;;2.10;0.10;;;;;;;37.31;24.97;97876.88;5055519;28;20052;-92
2021/08/08 08:51:59;;;;;;;0.45;0.17;;;;;;;36.61;25.15;97880.31;5058203;28;20032;-89
2021/08/08 08:54:26;;;;;;;0.20;0.17;;;;;;;36.32;26.14;97887.38;5054277;28;20052;-92
2021/08/08 08:56:52;;;;;;;0.10;0.10;;;;;;;37.14;24.70;97897.00;5067963;28;20029;-90
2021/08/08 08:59:19;;;;;;;0.00;0.00;;;;;;;37.02;24.37;97904.09;5064303;28;20097;-90
2021/08/08 09:01:47;;;;;;;0.10;0.10;;;;;;;37.11;24.54;97908.75;5059770;28;20051;-89
2021/08/08 09:04:13;;;;;;;0.10;0.10;;;;;;;37.50;24.69;97923.66;5059185;28;20524;-89
2021/08/08 09:06:42;;;;;;;0.10;0.10;;;;;;;37.49;24.31;97924.16;5053602;28;20037;-88
2021/08/08 09:09:08;;;;;;;0.10;0.10;;;;;;;37.33;24.19;97932.31;5072385;28;20081;-86
2021/08/08 09:11:42;;;;;;;0.20;0.20;;;;;;;37.10;24.27;97924.38;5061312;28;20036;-86
2021/08/08 09:14:12;;;;;;;0.10;0.10;;;;;;;36.85;24.25;97917.69;5063897;28;20025;-86
2021/08/08 09:16:40;;;;;;;0.10;0.10;;;;;;;37.17;24.87;97918.88;5058585;28;20026;-88
2021/08/08 09:19:15;;;;;;;0.30;0.20;;;;;;;35.62;25.58;97909.72;5060134;28;20037;-89
2021/08/08 09:21:43;;;;;;;0.20;0.20;;;;;;;35.50;26.64;97914.63;5062848;28;20548;-87
2021/08/08 09:24:10;;;;;;;0.20;0.20;;;;;;;35.42;26.08;97905.00;5060470;28;20036;-86
2021/08/08 09:26:39;;;;;;;0.20;0.20;;;;;;;36.32;25.22;97912.31;5060063;28;20487;-87
2021/08/08 09:29:15;;;;;;;0.10;0.10;;;;;;;36.69;23.74;97907.84;5057964;28;20119;-86
2021/08/08 09:31:50;;;;;;;0.20;0.10;;;;;;;36.97;24.54;97919.22;5067517;28;20027;-88
2021/08/08 09:34:35;;;;;;;0.00;0.00;;;;;;;36.76;23.69;97905.75;5065663;28;20505;-87
2021/08/08 09:37:16;;;;;;;0.10;0.10;;;;;;;36.52;23.88;97906.34;5056123;28;20127;-87
2021/08/08 09:39:45;;;;;;;;;;;;;;;36.46;24.02;97914.94;5062822;28;20040;-89
2021/08/08 09:42:14;;;;;;;0.25;0.25;;;;;;;36.26;25.12;97917.28;5062862;28;19916;-89
2021/08/08 09:45:14;;;;;;;0.52;0.10;;;;;;;35.98;24.46;97918.09;5056916;28;20031;-87
2021/08/08 09:47:54;;;;;;;0.10;0.10;;;;;;;35.44;26.13;97919.53;5044363;28;20048;-91
2021/08/08 09:50:23;;;;;;;0.13;0.13;;;;;;;34.96;26.36;97922.47;5059761;28;20055;-89
2021/08/08 09:52:54;;;;;;;0.10;0.10;;;;;;;35.02;26.42;97914.75;5064845;28;20049;-87
2021/08/08 09:55:24;;;;;;;1.65;0.20;;;;;;;35.23;27.17;97921.81;5072732;28;20082;-87
2021/08/08 09:57:51;;;;;;;0.10;0.10;;;;;;;35.67;26.35;97917.50;5062808;28;20060;-87
2021/08/08 10:00:29;;;;;;;0.20;0.20;;;;;;;35.48;25.79;97902.91;5063403;28;20365;-89
2021/08/08 10:02:55;;;;;;;0.20;0.20;;;;;;;36.03;25.97;97905.09;5060062;28;20032;-88
2021/08/08 10:05:23;;;;;;;0.20;0.10;;;;;;;35.71;25.03;97903.78;5060120;28;20051;-89
2021/08/08 10:07:50;;;;;;;0.10;0.10;;;;;;;36.52;24.09;97912.06;5057589;28;20033;-89
2021/08/08 10:10:18;;;;;;;0.35;0.20;;;;;;;37.02;24.03;97909.81;5059032;28;20576;-90
2021/08/08 10:12:44;;;;;;;0.22;0.10;;;;;;;37.26;24.52;97909.19;5059192;28;20045;-92
2021/08/08 10:15:11;;;;;;;0.10;0.10;;;;;;;36.96;25.32;97899.72;5056984;28;20033;-88
2021/08/08 10:17:42;;;;;;;0.20;0.20;;;;;;;36.84;24.97;97904.66;5061094;28;20044;-90
2021/08/08 10:20:10;;;;;;;0.10;0.10;;;;;;;37.17;24.17;97912.34;5056644;28;20037;-88
2021/08/08 10:22:42;;;;;;;0.10;0.10;;;;;;;37.01;23.59;97919.72;5057936;28;20032;-85
2021/08/08 10:25:09;;;;;;;0.08;0.08;;;;;;;36.77;24.48;97927.31;5057484;28;21341;-87
2021/08/08 10:27:36;;;;;;;0.15;0.15;;;;;;;36.32;25.10;97930.25;5061949;28;20051;-85
2021/08/08 10:30:03;;;;;;;0.20;0.20;;;;;;;37.08;24.46;97921.25;5057788;28;20033;-86
2021/08/08 10:32:30;;;;;;;0.10;0.10;;;;;;;37.48;23.52;97926.28;5063858;28;20430;-90
2021/08/08 10:35:07;;;;;;;0.22;0.10;;;;;;;37.32;23.26;97915.66;5056793;28;20051;-87
2021/08/08 10:37:33;;;;;;;0.20;0.20;;;;;;;37.46;24.10;97928.13;5059956;28;20041;-88
2021/08/08 10:39:59;;;;;;;1.55;0.22;;;;;;;36.61;24.14;97931.81;5059643;28;20060;-88
2021/08/08 10:42:26;;;;;;;0.25;0.25;;;;;;;36.18;25.19;97939.13;5062323;28;20033;-87
2021/08/08 10:44:59;;;;;;;0.50;0.20;;;;;;;35.85;25.06;97934.19;5058351;28;20063;-87
2021/08/08 10:47:27;;;;;;;0.20;0.20;;;;;;;36.65;24.75;97929.44;5057135;28;20040;-91
2021/08/08 10:49:54;;;;;;;0.30;0.20;;;;;;;36.86;24.97;97935.63;5060464;28;20369;-87
2021/08/08 10:52:20;;;;;;;0.10;0.10;;;;;;;38.12;23.47;97935.44;5058722;28;20035;-88
2021/08/08 10:54:52;;;;;;;0.20;0.15;;;;;;;38.92;22.27;97941.47;5058918;28;20025;-89
2021/08/08 10:57:19;;;;;;;0.20;0.20;;;;;;;37.87;23.32;97946.09;5050710;28;20064;-89
2021/08/08 10:59:49;;;;;;;0.10;0.10;;;;;;;37.94;22.70;97945.53;5060235;28;20033;-89
2021/08/08 11:02:23;;;;;;;0.20;0.20;;;;;;;38.56;22.15;97941.56;5057759;28;20079;-90
2021/08/08 11:04:49;;;;;;;0.10;0.10;;;;;;;38.90;22.59;97944.91;5057438;28;20091;-87
2021/08/08 11:07:17;;;;;;;0.32;0.20;;;;;;;38.90;20.99;97941.25;5057808;28;20056;-87
2021/08/08 11:09:44;;;;;;;0.10;0.10;;;;;;;38.20;22.18;97940.09;5056169;28;20044;-89
2021/08/08 11:12:10;;;;;;;0.45;0.10;;;;;;;38.54;21.84;97943.44;5063458;28;20055;-88
2021/08/08 11:14:47;;;;;;;0.10;0.10;;;;;;;38.19;22.11;97947.13;5062338;28;20519;-86
2021/08/08 11:17:13;;;;;;;0.10;0.10;;;;;;;37.90;22.09;97942.16;5063785;28;20037;-85
2021/08/08 11:19:41;;;;;;;0.22;0.10;;;;;;;37.64;23.27;97959.00;5068142;28;20040;-86
2021/08/08 11:22:16;;;;;;;0.22;0.10;;;;;;;38.04;22.63;97958.22;5056821;28;20122;-87
2021/08/08 11:24:44;;;;;;;0.32;0.22;;;;;;;37.50;24.81;97968.72;5057033;28;20048;-84
2021/08/08 11:27:10;;;;;;;0.20;0.20;;;;;;;37.08;24.01;97964.22;5063040;28;20089;-85
2021/08/08 11:29:37;;;;;;;1.30;0.15;;;;;;;37.25;23.58;97962.81;5067991;28;20050;-85
2021/08/08 11:32:06;;;;;;;0.13;0.13;;;;;;;38.21;23.43;97972.44;5067068;28;20040;-86
2021/08/08 11:34:32;;;;;;;1.10;0.20;;;;;;;38.77;21.69;97959.13;5062834;28;20044;-85